Time;durP1;ratioP1;P1;durP2;ratioP2;P2;SDS_P1;SDS_P2;PMS_P1;PMS_P2;Temp;Humidity;BMP_temperature;BMP_pressure;BME280_temperature;BME280_humidity;BME280_pressure;Samples;Min_cycle;Max_cycle;Signal;HPM_P1;HPM_P2
2021/01/16 00:01:36;;;;;;;22.20;12.88;;;0.00;99.90;;;;;;477745;248;27989;-69
2021/01/16 00:03:38;;;;;;;21.20;13.60;;;0.10;99.90;;;;;;477947;244;27475;-70
2021/01/16 00:05:39;;;;;;;20.83;12.68;;;0.10;99.90;;;;;;477942;247;27607;-69
2021/01/16 00:07:40;;;;;;;19.58;12.55;;;0.10;99.90;;;;;;477943;249;27554;-70
2021/01/16 00:09:41;;;;;;;24.48;14.10;;;0.10;99.90;;;;;;477956;249;27467;-70
2021/01/16 00:11:43;;;;;;;23.62;14.18;;;0.10;99.90;;;;;;478051;249;27428;-69
2021/01/16 00:13:44;;;;;;;22.67;12.88;;;0.20;99.90;;;;;;478103;249;28046;-70
2021/01/16 00:15:45;;;;;;;21.25;13.48;;;0.20;99.90;;;;;;478091;249;28999;-69
2021/01/16 00:17:46;;;;;;;21.55;13.15;;;0.20;99.90;;;;;;478081;249;27623;-69
2021/01/16 00:19:48;;;;;;;20.23;12.77;;;0.00;99.90;;;;;;478097;249;27466;-72
2021/01/16 00:21:49;;;;;;;20.80;13.05;;;0.00;99.90;;;;;;478036;249;27435;-70
2021/01/16 00:23:50;;;;;;;23.90;13.85;;;0.10;99.90;;;;;;477616;249;27571;-69
2021/01/16 00:25:51;;;;;;;19.37;12.50;;;0.10;99.90;;;;;;477493;249;27661;-69
2021/01/16 00:27:53;;;;;;;21.75;13.55;;;0.10;99.90;;;;;;477426;244;27579;-69
2021/01/16 00:29:54;;;;;;;22.70;14.43;;;0.10;99.90;;;;;;477807;249;28398;-70
2021/01/16 00:31:55;;;;;;;21.08;13.15;;;0.10;99.90;;;;;;478028;249;27874;-69
2021/01/16 00:33:56;;;;;;;24.08;13.65;;;0.10;99.90;;;;;;478022;249;27467;-70
2021/01/16 00:35:58;;;;;;;20.62;13.00;;;0.10;99.90;;;;;;477887;244;27646;-69
2021/01/16 00:37:59;;;;;;;21.02;12.15;;;0.10;99.90;;;;;;477945;249;27467;-70
2021/01/16 00:40:00;;;;;;;24.87;13.90;;;0.10;99.90;;;;;;477801;249;27658;-69
2021/01/16 00:42:01;;;;;;;20.23;13.15;;;0.10;99.90;;;;;;477725;249;27542;-69
2021/01/16 00:44:03;;;;;;;22.87;13.30;;;0.10;99.90;;;;;;477833;249;27571;-71
2021/01/16 00:46:04;;;;;;;21.65;13.43;;;0.10;99.90;;;;;;477949;248;27950;-70
2021/01/16 00:48:05;;;;;;;24.48;14.00;;;0.20;99.90;;;;;;477940;249;27942;-70
2021/01/16 00:50:07;;;;;;;24.50;13.85;;;0.20;99.90;;;;;;477860;249;27466;-70
2021/01/16 00:52:08;;;;;;;23.62;14.55;;;0.20;99.90;;;;;;477872;249;27634;-69
2021/01/16 00:54:09;;;;;;;23.15;13.50;;;0.10;99.90;;;;;;477880;249;27799;-70
2021/01/16 00:56:10;;;;;;;26.00;14.77;;;0.10;99.90;;;;;;477875;249;27553;-70
2021/01/16 00:58:12;;;;;;;20.75;13.00;;;0.10;99.90;;;;;;477910;249;27463;-70
2021/01/16 01:00:13;;;;;;;22.30;13.95;;;0.10;99.90;;;;;;477869;249;28041;-69
2021/01/16 01:02:14;;;;;;;21.45;13.50;;;0.10;99.90;;;;;;477918;249;28774;-70
2021/01/16 01:04:15;;;;;;;22.77;13.75;;;0.10;99.90;;;;;;478026;249;28052;-69
2021/01/16 01:06:17;;;;;;;24.75;14.35;;;0.10;99.90;;;;;;478064;249;27544;-70
2021/01/16 01:08:18;;;;;;;25.05;14.65;;;0.00;99.90;;;;;;478028;249;27450;-69
2021/01/16 01:10:19;;;;;;;24.00;14.52;;;0.00;99.90;;;;;;477282;249;27548;-69
2021/01/16 01:12:20;;;;;;;23.75;14.20;;;0.10;99.90;;;;;;477136;249;27663;-69
2021/01/16 01:14:22;;;;;;;23.02;14.13;;;0.10;99.90;;;;;;477823;249;27526;-69
2021/01/16 01:16:23;;;;;;;18.70;12.10;;;0.10;99.90;;;;;;478014;249;28075;-70
2021/01/16 01:18:24;;;;;;;22.90;12.80;;;0.00;99.90;;;;;;477962;249;29833;-69
2021/01/16 01:20:25;;;;;;;22.02;12.95;;;-0.10;99.90;;;;;;477863;249;27551;-70
2021/01/16 01:22:30;;;;;;;22.08;13.02;;;-0.30;99.90;;;;;;477914;249;27562;-71
2021/01/16 01:24:28;;;;;;;22.10;14.43;;;-0.40;99.90;;;;;;477632;249;27514;-69
2021/01/16 01:26:29;;;;;;;23.85;14.52;;;-0.40;99.90;;;;;;477923;249;27645;-68
2021/01/16 01:28:30;;;;;;;23.08;14.25;;;-0.40;99.90;;;;;;477871;247;27574;-70
2021/01/16 01:30:32;;;;;;;18.80;12.88;;;-0.40;99.90;;;;;;477837;249;28003;-69
2021/01/16 01:32:33;;;;;;;25.15;14.65;;;-0.50;99.90;;;;;;477934;249;28016;-71
2021/01/16 01:34:34;;;;;;;24.05;14.38;;;-0.50;99.90;;;;;;477927;249;27575;-69
2021/01/16 01:36:35;;;;;;;21.05;13.85;;;-0.50;99.90;;;;;;477875;249;27645;-70
2021/01/16 01:38:37;;;;;;;20.88;13.25;;;-0.40;99.90;;;;;;477900;249;27486;-70
2021/01/16 01:40:38;;;;;;;23.40;13.38;;;-0.50;99.90;;;;;;477870;249;27649;-69
2021/01/16 01:42:39;;;;;;;21.40;13.40;;;-0.60;99.90;;;;;;477907;249;28011;-69
2021/01/16 01:44:40;;;;;;;23.23;12.70;;;-0.60;99.90;;;;;;477936;249;28746;-69
2021/01/16 01:46:42;;;;;;;23.83;14.13;;;-0.60;99.90;;;;;;477905;249;27571;-70
2021/01/16 01:48:43;;;;;;;22.23;12.32;;;-0.50;99.90;;;;;;477900;249;27475;-71
2021/01/16 01:50:44;;;;;;;20.83;12.85;;;-0.50;99.90;;;;;;477878;249;27491;-69
2021/01/16 01:52:46;;;;;;;18.95;13.25;;;-0.50;99.90;;;;;;477976;249;27654;-69
2021/01/16 01:54:47;;;;;;;22.17;13.90;;;-0.40;99.90;;;;;;478011;249;28016;-70
2021/01/16 01:56:48;;;;;;;23.38;13.80;;;-0.40;99.90;;;;;;478067;249;28094;-70
2021/01/16 01:58:49;;;;;;;22.50;13.32;;;-0.30;99.90;;;;;;477908;249;27467;-69
2021/01/16 02:00:51;;;;;;;21.20;14.43;;;-0.30;99.90;;;;;;477867;249;27519;-69
2021/01/16 02:02:52;;;;;;;22.98;13.73;;;-0.40;99.90;;;;;;477890;249;27535;-69
2021/01/16 02:04:53;;;;;;;18.42;12.73;;;-0.40;99.90;;;;;;477937;249;27566;-70
2021/01/16 02:06:54;;;;;;;18.48;13.13;;;-0.40;99.90;;;;;;477989;249;27897;-69
2021/01/16 02:08:56;;;;;;;22.83;13.50;;;-0.40;99.90;;;;;;477946;249;27917;-69
2021/01/16 02:10:57;;;;;;;22.80;13.43;;;-0.40;99.90;;;;;;477934;249;27518;-70
2021/01/16 02:12:58;;;;;;;20.75;13.15;;;-0.50;99.90;;;;;;477962;249;27428;-69
2021/01/16 02:14:59;;;;;;;23.95;14.25;;;-0.60;99.90;;;;;;477947;248;27760;-69
2021/01/16 02:17:01;;;;;;;23.30;13.45;;;-0.60;99.90;;;;;;477936;249;27467;-71
2021/01/16 02:19:02;;;;;;;22.58;12.90;;;-0.60;99.90;;;;;;477925;249;27653;-69
2021/01/16 02:21:03;;;;;;;20.95;13.27;;;-0.60;99.90;;;;;;477973;249;27951;-70
2021/01/16 02:23:04;;;;;;;20.60;13.00;;;-0.60;99.90;;;;;;478048;249;27949;-69
2021/01/16 02:25:06;;;;;;;19.05;12.25;;;-0.60;99.90;;;;;;477982;249;27467;-69
2021/01/16 02:27:07;;;;;;;19.90;12.30;;;-0.60;99.90;;;;;;478003;249;27527;-69
2021/01/16 02:29:08;;;;;;;19.95;12.57;;;-0.70;99.90;;;;;;477943;249;27536;-69
2021/01/16 02:31:09;;;;;;;20.10;12.37;;;-0.70;99.90;;;;;;478014;249;27546;-71
2021/01/16 02:33:11;;;;;;;22.05;13.27;;;-0.80;99.90;;;;;;478060;249;27949;-69
2021/01/16 02:35:12;;;;;;;24.12;14.95;;;-0.80;99.90;;;;;;478076;249;27939;-69
2021/01/16 02:37:13;;;;;;;22.58;13.55;;;-0.90;99.90;;;;;;478061;249;27459;-70
2021/01/16 02:39:14;;;;;;;23.77;12.82;;;-0.90;99.90;;;;;;478079;249;27525;-69
2021/01/16 02:41:16;;;;;;;19.27;12.93;;;-1.00;99.90;;;;;;478046;249;27471;-70
2021/01/16 02:43:17;;;;;;;25.10;14.02;;;-1.10;99.90;;;;;;478037;249;27622;-69
2021/01/16 02:45:18;;;;;;;23.90;12.73;;;-1.10;99.90;;;;;;478022;248;28002;-69
2021/01/16 02:47:20;;;;;;;23.77;13.75;;;-1.10;99.90;;;;;;477990;249;29172;-71
2021/01/16 02:49:21;;;;;;;19.75;12.98;;;-1.10;99.90;;;;;;477977;249;27519;-69
2021/01/16 02:51:22;;;;;;;21.85;12.93;;;-1.10;99.90;;;;;;477912;248;27550;-70
2021/01/16 02:53:23;;;;;;;18.25;12.10;;;-1.10;99.90;;;;;;477929;249;27611;-69
2021/01/16 02:55:25;;;;;;;22.48;12.73;;;-1.20;99.90;;;;;;477890;249;27583;-69
2021/01/16 02:57:26;;;;;;;21.15;12.00;;;-1.20;99.90;;;;;;477938;249;27487;-69
2021/01/16 02:59:27;;;;;;;22.20;13.77;;;-1.30;99.90;;;;;;477946;249;27926;-69
2021/01/16 03:01:28;;;;;;;22.77;12.57;;;-1.30;99.90;;;;;;477872;249;27455;-68
2021/01/16 03:03:30;;;;;;;23.83;14.07;;;-1.40;99.90;;;;;;477826;248;27469;-70
2021/01/16 03:05:31;;;;;;;22.37;12.45;;;-1.40;99.90;;;;;;477896;249;27559;-70
2021/01/16 03:07:32;;;;;;;24.30;13.62;;;-1.40;99.90;;;;;;477903;249;27550;-69
2021/01/16 03:09:33;;;;;;;23.92;12.57;;;-1.50;99.90;;;;;;477920;249;27463;-69
2021/01/16 03:11:35;;;;;;;19.25;12.65;;;-1.50;99.90;;;;;;477849;249;28225;-71
2021/01/16 03:13:36;;;;;;;22.80;12.70;;;-1.50;99.90;;;;;;477913;249;27938;-70
2021/01/16 03:15:37;;;;;;;24.30;13.35;;;-1.60;99.90;;;;;;477898;249;27558;-69
2021/01/16 03:17:38;;;;;;;23.70;13.25;;;-1.60;99.90;;;;;;477980;249;27440;-69
2021/01/16 03:19:40;;;;;;;20.33;13.05;;;-1.70;99.90;;;;;;478049;249;27871;-69
2021/01/16 03:21:41;;;;;;;19.02;12.65;;;-1.70;99.90;;;;;;478000;249;27545;-71
2021/01/16 03:23:42;;;;;;;21.50;13.20;;;-1.70;99.90;;;;;;478024;249;27904;-70
2021/01/16 03:25:44;;;;;;;25.17;13.73;;;-1.70;99.90;;;;;;477975;249;27926;-69
2021/01/16 03:27:45;;;;;;;18.27;12.00;;;-1.70;99.90;;;;;;477851;249;27553;-69
2021/01/16 03:29:46;;;;;;;26.17;15.07;;;-1.80;99.90;;;;;;477959;249;27550;-70
2021/01/16 03:31:47;;;;;;;28.77;14.82;;;-1.80;99.90;;;;;;477885;249;27912;-69
2021/01/16 03:33:49;;;;;;;22.23;14.05;;;-1.80;99.90;;;;;;477925;248;27490;-69
2021/01/16 03:35:50;;;;;;;23.35;12.75;;;-1.90;99.90;;;;;;477909;249;27512;-69
2021/01/16 03:37:51;;;;;;;24.52;14.15;;;-1.90;99.90;;;;;;477943;249;27960;-69
2021/01/16 03:39:52;;;;;;;23.52;13.50;;;-1.90;99.90;;;;;;477968;249;27543;-70
2021/01/16 03:41:54;;;;;;;23.90;13.18;;;-2.00;99.90;;;;;;477904;249;27450;-69
2021/01/16 03:43:55;;;;;;;20.30;13.23;;;-2.00;99.90;;;;;;477928;249;27655;-69
2021/01/16 03:45:56;;;;;;;24.05;13.75;;;-2.00;99.90;;;;;;477928;249;27551;-70
2021/01/16 03:47:58;;;;;;;23.58;13.68;;;-2.00;99.90;;;;;;477979;249;27609;-69
2021/01/16 03:49:59;;;;;;;22.80;12.98;;;-2.10;99.90;;;;;;477946;249;27947;-70
2021/01/16 03:52:00;;;;;;;27.27;14.02;;;-2.20;99.90;;;;;;477945;249;29099;-69
2021/01/16 03:54:01;;;;;;;20.50;12.37;;;-2.20;99.90;;;;;;478082;249;27530;-69
2021/01/16 03:56:02;;;;;;;22.58;13.05;;;-2.20;99.90;;;;;;478103;249;27520;-72
2021/01/16 03:58:04;;;;;;;23.42;14.10;;;-2.30;99.90;;;;;;478108;249;27443;-69
2021/01/16 04:00:05;;;;;;;23.92;13.57;;;-2.30;99.90;;;;;;478077;249;27538;-70
2021/01/16 04:02:06;;;;;;;24.45;14.57;;;-2.30;99.90;;;;;;478142;249;27956;-69
2021/01/16 04:04:07;;;;;;;22.20;13.90;;;-2.30;99.90;;;;;;478074;249;29026;-69
2021/01/16 04:06:09;;;;;;;23.42;14.13;;;-2.30;99.90;;;;;;478088;249;27539;-71
2021/01/16 04:08:10;;;;;;;20.83;13.40;;;-2.30;99.90;;;;;;478098;249;27440;-69
2021/01/16 04:10:11;;;;;;;20.02;12.60;;;-2.40;99.90;;;;;;478017;249;27563;-69
2021/01/16 04:12:12;;;;;;;19.08;12.10;;;-2.40;99.90;;;;;;478028;249;27439;-69
2021/01/16 04:14:15;;;;;;;19.90;12.98;;;-2.40;99.90;;;;;;477987;249;27656;-69
2021/01/16 04:16:15;;;;;;;18.45;12.05;;;-2.30;99.90;;;;;;477907;249;29024;-70
2021/01/16 04:18:16;;;;;;;26.30;13.40;;;-2.30;99.90;;;;;;477956;245;27603;-69
2021/01/16 04:20:17;;;;;;;19.30;12.70;;;-2.40;99.90;;;;;;477882;249;27473;-69
2021/01/16 04:22:19;;;;;;;21.85;12.93;;;-2.40;99.90;;;;;;477884;249;27787;-70
2021/01/16 04:24:20;;;;;;;22.42;13.02;;;-2.40;99.90;;;;;;477927;249;27526;-69
2021/01/16 04:26:21;;;;;;;20.83;12.63;;;-2.40;99.90;;;;;;477941;249;27467;-70
2021/01/16 04:28:23;;;;;;;22.05;12.95;;;-2.30;99.90;;;;;;477846;249;28008;-69
2021/01/16 04:30:24;;;;;;;23.23;12.27;;;-2.30;99.90;;;;;;477865;249;27463;-69
2021/01/16 04:32:25;;;;;;;22.30;12.55;;;-2.30;99.90;;;;;;477931;249;27548;-69
2021/01/16 04:34:26;;;;;;;22.15;13.15;;;-2.30;99.90;;;;;;477939;249;27466;-68
2021/01/16 04:36:28;;;;;;;23.75;13.52;;;-2.30;99.90;;;;;;477932;249;28018;-71
2021/01/16 04:38:29;;;;;;;22.62;12.95;;;-2.20;99.90;;;;;;477921;249;27475;-71
2021/01/16 04:40:30;;;;;;;25.23;13.20;;;-2.20;99.90;;;;;;477902;249;28727;-69
2021/01/16 04:42:31;;;;;;;19.37;12.30;;;-2.20;99.90;;;;;;477952;249;28017;-69
2021/01/16 04:44:33;;;;;;;24.02;12.65;;;-2.20;99.90;;;;;;478011;249;27527;-69
2021/01/16 04:46:34;;;;;;;22.73;13.30;;;-2.10;99.90;;;;;;478036;249;27639;-70
2021/01/16 04:48:35;;;;;;;21.02;13.30;;;-2.10;99.90;;;;;;478057;249;27591;-70
2021/01/16 04:50:36;;;;;;;23.15;12.73;;;-2.10;99.90;;;;;;477931;248;27554;-69
2021/01/16 04:52:38;;;;;;;22.23;13.70;;;-2.10;99.90;;;;;;478050;249;28014;-69
2021/01/16 04:54:39;;;;;;;22.95;13.05;;;-2.10;99.90;;;;;;477881;249;29453;-69
2021/01/16 04:56:40;;;;;;;21.17;12.50;;;-2.10;99.90;;;;;;477816;249;27637;-69
2021/01/16 04:58:41;;;;;;;21.80;12.90;;;-2.00;99.90;;;;;;477887;249;27551;-69
2021/01/16 05:00:43;;;;;;;23.20;12.35;;;-2.00;99.90;;;;;;477815;249;27560;-70
2021/01/16 05:02:44;;;;;;;24.15;13.85;;;-2.00;99.90;;;;;;477852;249;27566;-69
2021/01/16 05:04:45;;;;;;;24.40;15.10;;;-2.10;99.90;;;;;;477910;248;27643;-70
2021/01/16 05:06:47;;;;;;;23.95;14.85;;;-2.10;99.90;;;;;;477969;249;27879;-69
2021/01/16 05:08:48;;;;;;;25.52;14.77;;;-2.10;99.90;;;;;;477951;249;27547;-69
2021/01/16 05:10:49;;;;;;;25.55;14.45;;;-2.00;99.90;;;;;;477869;249;27559;-70
2021/01/16 05:12:50;;;;;;;26.65;14.87;;;-2.00;99.90;;;;;;477921;249;27533;-69
2021/01/16 05:14:51;;;;;;;24.65;14.30;;;-2.10;99.90;;;;;;477933;249;27494;-70
2021/01/16 05:16:53;;;;;;;29.58;13.88;;;-2.10;99.90;;;;;;477949;249;27539;-69
2021/01/16 05:18:54;;;;;;;22.75;13.15;;;-2.10;99.90;;;;;;477975;249;27939;-69
2021/01/16 05:20:55;;;;;;;21.42;13.02;;;-2.00;99.90;;;;;;478022;249;28037;-70
2021/01/16 05:23:12;;;;;;;23.60;13.80;;;-2.10;99.90;;;;;;477984;249;27431;-69
2021/01/16 05:25:13;;;;;;;25.08;14.18;;;-2.00;99.90;;;;;;477936;249;27515;-69
2021/01/16 05:27:14;;;;;;;23.12;13.07;;;-2.00;99.90;;;;;;478046;249;27967;-69
2021/01/16 05:29:15;;;;;;;23.67;14.40;;;-2.00;99.90;;;;;;478093;249;28481;-69
2021/01/16 05:31:17;;;;;;;23.12;13.68;;;-1.90;99.90;;;;;;478050;249;27497;-69
2021/01/16 05:33:18;;;;;;;22.50;14.20;;;-1.90;99.90;;;;;;478087;246;27567;-70
2021/01/16 05:35:19;;;;;;;20.45;13.10;;;-1.90;99.90;;;;;;478105;249;27442;-69
2021/01/16 05:37:20;;;;;;;19.95;13.32;;;-1.90;99.90;;;;;;478085;249;27635;-69
2021/01/16 05:39:22;;;;;;;23.10;13.02;;;-1.90;99.90;;;;;;478038;248;27996;-71
2021/01/16 05:41:23;;;;;;;21.37;12.80;;;-1.90;99.90;;;;;;478019;249;29002;-69
2021/01/16 05:43:24;;;;;;;21.60;12.52;;;-1.90;99.90;;;;;;478042;249;27458;-69
2021/01/16 05:45:25;;;;;;;22.55;13.25;;;-1.90;99.90;;;;;;478001;249;27568;-69
2021/01/16 05:47:27;;;;;;;19.98;12.35;;;-1.90;99.90;;;;;;477895;249;27569;-69
2021/01/16 05:49:28;;;;;;;23.38;13.07;;;-1.80;99.90;;;;;;477870;249;27792;-69
2021/01/16 05:51:29;;;;;;;22.52;12.98;;;-1.80;99.90;;;;;;477800;249;27644;-69
2021/01/16 05:53:31;;;;;;;23.17;12.95;;;-1.80;99.90;;;;;;477921;244;28178;-70
2021/01/16 05:55:32;;;;;;;25.70;16.05;;;-1.80;99.90;;;;;;477920;249;27567;-69
2021/01/16 05:57:33;;;;;;;24.90;14.82;;;-1.80;99.90;;;;;;477904;249;27487;-70
2021/01/16 05:59:34;;;;;;;26.67;15.38;;;-1.80;99.90;;;;;;477914;249;27535;-68
2021/01/16 06:01:36;;;;;;;24.00;15.20;;;-1.90;99.90;;;;;;477851;249;27647;-69
2021/01/16 06:03:37;;;;;;;23.25;14.45;;;-1.90;99.90;;;;;;477943;249;27679;-70
2021/01/16 06:05:38;;;;;;;24.37;14.43;;;-1.80;99.90;;;;;;477935;249;28123;-70
2021/01/16 06:07:39;;;;;;;22.75;13.68;;;-1.80;99.90;;;;;;478002;249;27471;-69
2021/01/16 06:09:41;;;;;;;25.08;14.90;;;-1.70;99.90;;;;;;477991;249;27647;-70
2021/01/16 06:11:42;;;;;;;23.98;14.30;;;-1.80;99.90;;;;;;477995;249;27423;-69
2021/01/16 06:13:43;;;;;;;27.50;15.63;;;-1.70;99.90;;;;;;478064;249;27466;-70
2021/01/16 06:15:44;;;;;;;26.20;14.93;;;-1.70;99.90;;;;;;478052;249;27471;-70
2021/01/16 06:17:46;;;;;;;25.33;14.90;;;-1.70;99.90;;;;;;478015;249;28114;-69
2021/01/16 06:19:47;;;;;;;24.10;14.82;;;-1.60;99.90;;;;;;477983;249;29110;-69
2021/01/16 06:21:48;;;;;;;25.70;13.93;;;-1.60;99.90;;;;;;477885;249;27551;-69
2021/01/16 06:23:49;;;;;;;25.60;14.65;;;-1.70;99.90;;;;;;477850;249;27475;-70
2021/01/16 06:25:51;;;;;;;24.75;14.05;;;-1.70;99.90;;;;;;477851;249;27474;-69
2021/01/16 06:27:52;;;;;;;21.12;13.27;;;-1.70;99.90;;;;;;477888;249;27463;-69
2021/01/16 06:29:53;;;;;;;22.35;14.23;;;-1.80;99.90;;;;;;477864;244;28011;-69
2021/01/16 06:31:54;;;;;;;21.75;12.60;;;-1.80;99.90;;;;;;477884;249;28053;-71
2021/01/16 06:33:56;;;;;;;22.58;13.88;;;-1.80;99.90;;;;;;477907;249;27534;-69
2021/01/16 06:35:57;;;;;;;23.15;13.15;;;-1.80;99.90;;;;;;477902;249;27570;-70
2021/01/16 06:37:58;;;;;;;21.85;12.60;;;-1.80;99.90;;;;;;477874;249;27471;-69
2021/01/16 06:39:59;;;;;;;21.70;12.57;;;-1.80;99.90;;;;;;477875;249;27530;-69
2021/01/16 06:42:01;;;;;;;20.00;12.57;;;-1.80;99.90;;;;;;477942;249;27466;-69
2021/01/16 06:44:02;;;;;;;24.58;14.68;;;-1.90;99.90;;;;;;477977;249;28061;-69
2021/01/16 06:46:03;;;;;;;22.58;13.90;;;-1.80;99.90;;;;;;478028;249;28042;-69
2021/01/16 06:48:05;;;;;;;25.48;15.40;;;-1.80;99.90;;;;;;478066;249;27527;-71
2021/01/16 06:50:06;;;;;;;23.80;14.00;;;-1.80;99.90;;;;;;478041;249;27573;-69
2021/01/16 06:52:07;;;;;;;23.55;14.55;;;-1.80;99.90;;;;;;478076;249;27499;-70
2021/01/16 06:54:08;;;;;;;26.15;15.32;;;-1.70;99.90;;;;;;478083;249;27431;-69
2021/01/16 06:56:10;;;;;;;25.50;15.15;;;-1.70;99.90;;;;;;478075;249;28000;-69
2021/01/16 06:58:11;;;;;;;26.65;16.37;;;-1.60;99.90;;;;;;478070;247;28141;-72
2021/01/16 07:00:12;;;;;;;30.35;16.87;;;-1.70;99.90;;;;;;478013;249;27419;-69
2021/01/16 07:02:13;;;;;;;25.20;14.52;;;-1.70;99.90;;;;;;478060;249;27535;-69
2021/01/16 07:04:15;;;;;;;26.15;16.95;;;-1.70;99.90;;;;;;478039;249;27491;-69
2021/01/16 07:06:17;;;;;;;27.80;17.23;;;-1.70;99.90;;;;;;477957;249;27467;-70
2021/01/16 07:08:17;;;;;;;28.98;15.82;;;-1.60;99.90;;;;;;477887;249;27919;-70
2021/01/16 07:10:18;;;;;;;25.30;14.93;;;-1.60;99.90;;;;;;477832;249;28010;-69
2021/01/16 07:12:20;;;;;;;26.52;13.18;;;-1.60;99.90;;;;;;477956;249;27543;-69
2021/01/16 07:14:21;;;;;;;22.80;13.27;;;-1.70;99.90;;;;;;477926;244;27542;-70
2021/01/16 07:16:22;;;;;;;20.20;11.48;;;-1.80;99.90;;;;;;477397;249;27483;-69
2021/01/16 07:18:23;;;;;;;21.35;12.68;;;-1.80;99.90;;;;;;477415;249;27895;-69
2021/01/16 07:20:25;;;;;;;21.45;13.98;;;-1.70;99.90;;;;;;477703;249;27533;-69
2021/01/16 07:22:26;;;;;;;25.35;14.60;;;-1.70;99.90;;;;;;477927;249;28023;-69
2021/01/16 07:24:27;;;;;;;20.60;13.30;;;-1.60;99.90;;;;;;477928;249;27451;-69
2021/01/16 07:26:28;;;;;;;22.25;14.07;;;-1.60;99.90;;;;;;477903;249;27524;-69
2021/01/16 07:28:30;;;;;;;23.80;14.13;;;-1.60;99.90;;;;;;477923;249;27798;-69
2021/01/16 07:30:31;;;;;;;21.20;12.25;;;-1.60;99.90;;;;;;477923;249;27502;-69
2021/01/16 07:32:32;;;;;;;22.60;13.48;;;-1.60;99.90;;;;;;477970;249;27439;-69
2021/01/16 07:34:33;;;;;;;18.85;12.23;;;-1.60;99.90;;;;;;478003;249;28007;-70
2021/01/16 07:36:35;;;;;;;27.20;13.70;;;-1.60;99.90;;;;;;478039;249;29265;-69
2021/01/16 07:38:36;;;;;;;21.85;12.57;;;-1.60;99.90;;;;;;478043;249;27666;-71
2021/01/16 07:40:37;;;;;;;22.30;13.68;;;-1.60;99.90;;;;;;477987;249;27523;-70
2021/01/16 07:42:39;;;;;;;21.27;12.65;;;-1.60;99.90;;;;;;478044;248;27630;-69
2021/01/16 07:44:40;;;;;;;19.67;12.85;;;-1.70;99.90;;;;;;477877;249;27474;-69
2021/01/16 07:46:41;;;;;;;21.00;13.23;;;-1.70;99.90;;;;;;477926;249;27975;-70
2021/01/16 07:48:42;;;;;;;23.58;13.35;;;-1.80;99.90;;;;;;477882;249;29066;-69
2021/01/16 07:50:44;;;;;;;22.60;13.15;;;-1.70;99.90;;;;;;477888;249;27450;-70
2021/01/16 07:52:45;;;;;;;21.23;13.25;;;-1.60;99.90;;;;;;477942;249;27543;-69
2021/01/16 07:54:46;;;;;;;25.90;15.75;;;-1.50;99.90;;;;;;477926;249;27538;-69
2021/01/16 07:56:47;;;;;;;27.10;15.63;;;-1.50;99.90;;;;;;477913;249;27556;-69
2021/01/16 07:58:49;;;;;;;24.15;14.73;;;-1.40;99.90;;;;;;477957;249;28079;-69
2021/01/16 08:00:50;;;;;;;24.65;15.00;;;-1.40;99.90;;;;;;477866;247;28017;-69
2021/01/16 08:02:51;;;;;;;27.83;15.77;;;-1.40;99.90;;;;;;477795;249;27539;-70
2021/01/16 08:04:52;;;;;;;27.98;14.45;;;-1.30;99.90;;;;;;477903;249;27459;-69
2021/01/16 08:06:54;;;;;;;24.12;14.75;;;-1.40;99.90;;;;;;477891;249;27554;-71
2021/01/16 08:08:55;;;;;;;24.45;14.63;;;-1.40;99.90;;;;;;477940;244;27530;-69
2021/01/16 08:10:56;;;;;;;21.20;12.73;;;-1.40;99.90;;;;;;477833;249;27551;-69
2021/01/16 08:12:57;;;;;;;19.77;13.07;;;-1.40;99.90;;;;;;477934;249;27950;-71
2021/01/16 08:14:59;;;;;;;21.30;11.70;;;-1.40;99.90;;;;;;477888;249;27985;-69
2021/01/16 08:17:00;;;;;;;20.12;12.45;;;-1.40;99.90;;;;;;477957;249;27674;-70
2021/01/16 08:19:01;;;;;;;21.95;13.62;;;-1.40;99.90;;;;;;478057;249;27527;-69
2021/01/16 08:21:02;;;;;;;22.20;13.50;;;-1.40;99.90;;;;;;477949;249;27716;-70
2021/01/16 08:23:04;;;;;;;25.02;15.43;;;-1.30;99.90;;;;;;478069;244;27471;-71
2021/01/16 08:25:05;;;;;;;23.77;14.40;;;-1.40;99.90;;;;;;478071;249;27867;-70
2021/01/16 08:27:06;;;;;;;21.60;12.40;;;-1.30;99.90;;;;;;478098;249;29111;-70
2021/01/16 08:29:07;;;;;;;19.40;12.20;;;-1.30;99.90;;;;;;478096;249;27511;-69
2021/01/16 08:31:09;;;;;;;22.10;12.30;;;-1.30;99.90;;;;;;478069;249;27542;-69
2021/01/16 08:33:12;;;;;;;22.80;12.80;;;-1.40;99.90;;;;;;477976;249;27470;-71
2021/01/16 08:35:11;;;;;;;20.90;13.40;;;-1.50;99.90;;;;;;477828;249;27651;-70
2021/01/16 08:37:13;;;;;;;16.37;11.12;;;-1.50;99.90;;;;;;477924;249;28154;-70
2021/01/16 08:39:14;;;;;;;20.92;13.18;;;-1.50;99.90;;;;;;477945;249;29090;-69
2021/01/16 08:41:15;;;;;;;21.00;12.90;;;-1.60;99.90;;;;;;477855;249;27568;-69
2021/01/16 08:43:16;;;;;;;19.00;12.50;;;-1.50;99.90;;;;;;477927;249;27471;-70
2021/01/16 08:45:18;;;;;;;23.75;13.70;;;-1.40;99.90;;;;;;477911;249;27542;-69
2021/01/16 08:47:19;;;;;;;23.25;14.40;;;-1.40;99.90;;;;;;477933;249;27927;-70
2021/01/16 08:49:20;;;;;;;22.05;13.48;;;-1.40;99.90;;;;;;477925;244;27538;-72
2021/01/16 08:51:21;;;;;;;21.75;13.75;;;-1.40;99.90;;;;;;477837;249;27947;-69
2021/01/16 08:53:23;;;;;;;18.60;13.65;;;-1.40;99.90;;;;;;477900;249;27553;-69
2021/01/16 08:55:24;;;;;;;22.45;13.40;;;-1.30;99.90;;;;;;477931;249;27538;-69
2021/01/16 08:57:25;;;;;;;22.37;13.82;;;-1.30;99.90;;;;;;477938;249;27647;-69
2021/01/16 08:59:26;;;;;;;25.67;14.18;;;-1.30;99.90;;;;;;477953;249;27839;-70
2021/01/16 09:01:28;;;;;;;21.10;13.50;;;-1.20;99.90;;;;;;478000;249;27435;-69
2021/01/16 09:03:29;;;;;;;24.12;15.15;;;-1.20;99.90;;;;;;478054;249;28260;-70
2021/01/16 09:05:32;;;;;;;22.05;14.20;;;-1.20;99.90;;;;;;478035;249;28514;-69
2021/01/16 09:07:32;;;;;;;21.52;13.80;;;-1.10;99.90;;;;;;477883;249;27630;-70
2021/01/16 09:09:33;;;;;;;20.85;12.88;;;-1.10;99.90;;;;;;478212;249;27431;-69
2021/01/16 09:11:34;;;;;;;22.83;13.52;;;-1.10;99.90;;;;;;478200;249;27431;-69
2021/01/16 09:13:35;;;;;;;21.62;14.68;;;-1.00;99.90;;;;;;478252;248;27486;-69
2021/01/16 09:15:39;;;;;;;24.50;15.52;;;-1.00;99.90;;;;;;478239;244;27972;-70
2021/01/16 09:17:38;;;;;;;24.87;15.10;;;-0.90;99.90;;;;;;477842;249;29294;-69
2021/01/16 09:19:39;;;;;;;26.15;15.10;;;-1.00;99.90;;;;;;477905;248;27579;-69
2021/01/16 09:21:40;;;;;;;29.85;16.52;;;-0.90;99.90;;;;;;477860;249;27482;-69
2021/01/16 09:23:41;;;;;;;24.20;14.55;;;-0.90;99.90;;;;;;477910;249;27572;-69
2021/01/16 09:25:43;;;;;;;24.08;15.07;;;-0.80;99.90;;;;;;477953;249;27635;-69
2021/01/16 09:27:44;;;;;;;23.55;14.50;;;-0.80;99.90;;;;;;477920;249;27542;-71
2021/01/16 09:29:45;;;;;;;29.17;16.73;;;-0.80;99.90;;;;;;477905;249;28014;-69
2021/01/16 09:31:47;;;;;;;24.40;15.55;;;-0.80;99.90;;;;;;477660;244;27471;-70
2021/01/16 09:33:48;;;;;;;20.90;14.43;;;-0.80;99.90;;;;;;478026;249;27411;-69
2021/01/16 09:35:49;;;;;;;21.73;15.20;;;-0.70;99.90;;;;;;478044;249;27458;-70
2021/01/16 09:37:50;;;;;;;21.70;13.10;;;-0.60;99.90;;;;;;478059;249;27435;-69
2021/01/16 09:39:52;;;;;;;19.05;12.25;;;-0.60;99.90;;;;;;478068;249;27463;-69
2021/01/16 09:41:53;;;;;;;19.85;13.10;;;-0.60;99.90;;;;;;477998;249;27947;-71
2021/01/16 09:43:54;;;;;;;22.37;12.75;;;-0.60;99.90;;;;;;478100;249;27927;-69
2021/01/16 09:45:55;;;;;;;23.48;14.40;;;-0.50;99.90;;;;;;478099;249;27458;-70
2021/01/16 09:47:57;;;;;;;20.98;12.90;;;-0.50;99.90;;;;;;478094;249;27559;-69
2021/01/16 09:49:58;;;;;;;20.12;13.07;;;-0.50;99.90;;;;;;478102;249;27479;-69
2021/01/16 09:51:59;;;;;;;21.95;13.95;;;-0.40;99.90;;;;;;478028;244;27574;-70
2021/01/16 09:54:00;;;;;;;29.65;18.48;;;-0.40;99.90;;;;;;478054;249;27931;-69
2021/01/16 09:56:02;;;;;;;21.92;14.45;;;-0.30;99.90;;;;;;478027;249;27912;-69
2021/01/16 09:58:03;;;;;;;22.00;14.15;;;-0.40;99.90;;;;;;478011;249;27466;-69
2021/01/16 10:00:04;;;;;;;21.17;13.60;;;-0.30;99.90;;;;;;477933;249;27567;-69
2021/01/16 10:02:05;;;;;;;17.73;12.93;;;-0.30;99.90;;;;;;477952;249;27477;-70
2021/01/16 10:04:07;;;;;;;20.40;13.13;;;-0.20;99.90;;;;;;477921;249;27575;-69
2021/01/16 10:06:08;;;;;;;20.60;12.82;;;-0.30;99.90;;;;;;477922;249;27919;-70
2021/01/16 10:08:09;;;;;;;19.10;12.98;;;-0.20;99.90;;;;;;477888;249;28126;-70
2021/01/16 10:10:11;;;;;;;18.40;12.32;;;-0.20;99.90;;;;;;477775;249;27446;-69
2021/01/16 10:12:12;;;;;;;18.02;11.65;;;-0.20;99.90;;;;;;477907;249;27459;-70
2021/01/16 10:14:13;;;;;;;21.30;12.60;;;-0.10;99.90;;;;;;477926;249;27569;-70
2021/01/16 10:16:14;;;;;;;17.02;11.30;;;-0.10;99.90;;;;;;477881;249;27647;-70